Bemis Heights, New York
Current Conditions -  °F | °C
As of 12:51 AM on Sunday 23 Nov 2014 (Local Time) from KALB Reporting Station
Light Rain Light Rain  
Wind Chill: -1°   Ceiling: 3000
Heat Index:   Visibility: 7mi
Dew Point: -2°   Wind: 9mph
Humidity: 73%   Direction: 180°S
Pressure: 30.09"   Gusts: NA
Location:  43.0236°N, 73.676°W
Report Text: KALB 230551Z 18008KT 7SM -RA BKN030 OVC036 03/M02 A3009 RMK AO2 RAE0456B23 SLP193 P0003 60006 T00281017 10044 20022 52005
Loading
Personal Weather Stations






























Interactive Weather Map New forecast layout! Learn more

10-Day Weather Forecast

Advertisements
Track Severe Weather on mobile